Search for airport 
image banner adimage banner adimage banner ad
image banner ad

ED1754 - Schwedt/Oder Pck Raffinerie Gmbh

Located in Schwedt/Oder, Germany

ICAO - , IATA -

Data provided by Airmate  

General information

Coordinates: N53°5'31" E14°13'31"
Elevation is 48 feet MSL.
 
View others Airports in Mecklenburg-Vorpommern

Operational data

Special qualification required
Current time UTC:
Current local time:
Weather at : EPSC - Szczecin/Goleniow ( 71 km )
METAR: EPSC 060000Z 25014G25KT 220V280 9999 OVC028 06/01 Q1001
TAF: TAF EPSC 052330Z 0600/0624 25015KT 9999 SCT030 TEMPO 0600/0613 25020G32KT BECMG 0613/0616 VRB02KT
View NOTAMs / SUP AIP / TFR affecting this airport [VIEW]
Communications frequencies: [VIEW]

Runways:

Airport contact information

Address: Schwedt/Oder Germany

Satellite view of ED1754